sensor_id;sensor_type;location;lat;lon;timestamp;pressure;altitude;pressure_sealevel;temperature;humidity
79455;BME280;68900;52.134;5.420;2023-06-24T00:01:17;102547.88;;;20.37;63.64
79455;BME280;68900;52.134;5.420;2023-06-24T00:03:44;102546.50;;;20.33;63.61
79455;BME280;68900;52.134;5.420;2023-06-24T00:06:13;102548.22;;;20.34;62.88
79455;BME280;68900;52.134;5.420;2023-06-24T00:08:55;102546.47;;;20.49;62.23
79455;BME280;68900;52.134;5.420;2023-06-24T00:11:30;102550.78;;;20.43;63.15
79455;BME280;68900;52.134;5.420;2023-06-24T00:13:57;102552.31;;;20.46;62.67
79455;BME280;68900;52.134;5.420;2023-06-24T00:16:24;102553.34;;;20.53;62.27
79455;BME280;68900;52.134;5.420;2023-06-24T00:18:54;102552.31;;;20.46;62.60
79455;BME280;68900;52.134;5.420;2023-06-24T00:21:27;102562.09;;;20.48;62.56
79455;BME280;68900;52.134;5.420;2023-06-24T00:23:57;102557.13;;;20.44;62.65
79455;BME280;68900;52.134;5.420;2023-06-24T00:26:25;102555.06;;;20.46;62.73
79455;BME280;68900;52.134;5.420;2023-06-24T00:28:51;102555.41;;;20.43;62.55
79455;BME280;68900;52.134;5.420;2023-06-24T00:31:19;102547.16;;;20.26;64.38
79455;BME280;68900;52.134;5.420;2023-06-24T00:33:47;102553.00;;;20.23;63.75
79455;BME280;68900;52.134;5.420;2023-06-24T00:36:14;102567.03;;;20.28;64.38
79455;BME280;68900;52.134;5.420;2023-06-24T00:38:40;102555.91;;;19.98;64.27
79455;BME280;68900;52.134;5.420;2023-06-24T00:41:08;102548.19;;;19.85;65.17
79455;BME280;68900;52.134;5.420;2023-06-24T00:43:34;102551.28;;;19.74;65.15
79455;BME280;68900;52.134;5.420;2023-06-24T00:46:01;102561.88;;;19.77;64.64
79455;BME280;68900;52.134;5.420;2023-06-24T00:48:29;102563.78;;;19.84;64.55
79455;BME280;68900;52.134;5.420;2023-06-24T00:50:55;102560.00;;;19.69;65.31
79455;BME280;68900;52.134;5.420;2023-06-24T00:53:24;102564.63;;;19.77;63.89
79455;BME280;68900;52.134;5.420;2023-06-24T00:55:52;102560.69;;;19.71;65.14
79455;BME280;68900;52.134;5.420;2023-06-24T00:58:21;102560.81;;;19.54;65.39
79455;BME280;68900;52.134;5.420;2023-06-24T01:00:49;102556.19;;;19.46;65.71
79455;BME280;68900;52.134;5.420;2023-06-24T01:03:24;102557.41;;;19.60;64.66
79455;BME280;68900;52.134;5.420;2023-06-24T01:05:53;102552.47;;;19.71;63.96
79455;BME280;68900;52.134;5.420;2023-06-24T01:08:20;102549.06;;;19.77;63.69
79455;BME280;68900;52.134;5.420;2023-06-24T01:10:49;102540.84;;;19.77;64.77
79455;BME280;68900;52.134;5.420;2023-06-24T01:13:17;102543.69;;;19.52;65.65
79455;BME280;68900;52.134;5.420;2023-06-24T01:15:45;102548.59;;;19.40;65.89
79455;BME280;68900;52.134;5.420;2023-06-24T01:18:26;102546.53;;;19.34;66.06
79455;BME280;68900;52.134;5.420;2023-06-24T01:21:02;102544.13;;;19.31;66.25
79455;BME280;68900;52.134;5.420;2023-06-24T01:26:26;102540.19;;;19.25;66.83
79455;BME280;68900;52.134;5.420;2023-06-24T01:37:12;102537.41;;;19.09;67.63
79455;BME280;68900;52.134;5.420;2023-06-24T01:39:42;102532.78;;;19.10;67.73
79455;BME280;68900;52.134;5.420;2023-06-24T01:42:14;102532.59;;;19.11;66.68
79455;BME280;68900;52.134;5.420;2023-06-24T01:44:44;102543.78;;;19.26;65.71
79455;BME280;68900;52.134;5.420;2023-06-24T01:47:18;102548.75;;;19.30;65.43
79455;BME280;68900;52.134;5.420;2023-06-24T01:49:46;102544.81;;;19.33;66.21
79455;BME280;68900;52.134;5.420;2023-06-24T01:52:14;102542.25;;;19.23;66.25
79455;BME280;68900;52.134;5.420;2023-06-24T01:54:42;102542.91;;;19.17;65.81
79455;BME280;68900;52.134;5.420;2023-06-24T01:57:11;102538.28;;;19.18;66.06
79455;BME280;68900;52.134;5.420;2023-06-24T01:59:40;102540.84;;;19.19;67.15
79455;BME280;68900;52.134;5.420;2023-06-24T02:02:09;102537.34;;;19.01;67.43
79455;BME280;68900;52.134;5.420;2023-06-24T02:04:36;102528.47;;;18.99;67.90
79455;BME280;68900;52.134;5.420;2023-06-24T02:07:05;102535.56;;;18.84;68.50
79455;BME280;68900;52.134;5.420;2023-06-24T02:09:33;102532.88;;;18.92;67.14
79455;BME280;68900;52.134;5.420;2023-06-24T02:12:02;102537.72;;;19.06;66.59
79455;BME280;68900;52.134;5.420;2023-06-24T02:14:30;102527.31;;;19.10;66.84
79455;BME280;68900;52.134;5.420;2023-06-24T02:16:59;102530.88;;;19.10;66.14
79455;BME280;68900;52.134;5.420;2023-06-24T02:19:29;102530.38;;;19.15;66.21
79455;BME280;68900;52.134;5.420;2023-06-24T02:22:12;102521.16;;;19.16;66.07
79455;BME280;68900;52.134;5.420;2023-06-24T02:24:39;102525.47;;;19.18;66.14
79455;BME280;68900;52.134;5.420;2023-06-24T02:27:08;102518.09;;;19.19;65.76
79455;BME280;68900;52.134;5.420;2023-06-24T02:29:37;102518.91;;;19.03;67.33
79455;BME280;68900;52.134;5.420;2023-06-24T02:32:05;102523.31;;;18.96;67.56
79455;BME280;68900;52.134;5.420;2023-06-24T02:34:32;102519.53;;;18.89;67.06
79455;BME280;68900;52.134;5.420;2023-06-24T02:36:59;102515.06;;;18.88;67.09
79455;BME280;68900;52.134;5.420;2023-06-24T02:39:25;102514.91;;;18.89;66.93
79455;BME280;68900;52.134;5.420;2023-06-24T02:41:52;102504.81;;;18.82;68.26
79455;BME280;68900;52.134;5.420;2023-06-24T02:44:18;102509.84;;;18.69;67.61
79455;BME280;68900;52.134;5.420;2023-06-24T02:46:46;102508.34;;;18.74;67.71
79455;BME280;68900;52.134;5.420;2023-06-24T02:49:15;102512.66;;;18.77;67.20
79455;BME280;68900;52.134;5.420;2023-06-24T02:51:42;102515.56;;;18.83;66.87
79455;BME280;68900;52.134;5.420;2023-06-24T02:54:09;102513.66;;;18.76;67.00
79455;BME280;68900;52.134;5.420;2023-06-24T02:56:38;102520.63;;;18.70;67.66
79455;BME280;68900;52.134;5.420;2023-06-24T02:59:08;102516.69;;;18.73;67.31
79455;BME280;68900;52.134;5.420;2023-06-24T03:01:39;102510.22;;;18.74;67.78
79455;BME280;68900;52.134;5.420;2023-06-24T03:04:06;102509.47;;;18.64;67.61
79455;BME280;68900;52.134;5.420;2023-06-24T03:06:33;102508.75;;;18.53;67.70
79455;BME280;68900;52.134;5.420;2023-06-24T03:09:10;102514.75;;;18.57;67.25
79455;BME280;68900;52.134;5.420;2023-06-24T03:11:44;102505.34;;;18.60;67.93
79455;BME280;68900;52.134;5.420;2023-06-24T03:14:11;102502.38;;;18.45;68.38
79455;BME280;68900;52.134;5.420;2023-06-24T03:16:38;102509.34;;;18.39;68.86
79455;BME280;68900;52.134;5.420;2023-06-24T03:19:05;102510.97;;;18.32;68.84
79455;BME280;68900;52.134;5.420;2023-06-24T03:21:32;102511.78;;;18.25;68.72
79455;BME280;68900;52.134;5.420;2023-06-24T03:23:58;102514.78;;;18.14;69.75
79455;BME280;68900;52.134;5.420;2023-06-24T03:26:39;102508.72;;;18.02;69.90
79455;BME280;68900;52.134;5.420;2023-06-24T03:29:08;102516.53;;;17.97;70.28
79455;BME280;68900;52.134;5.420;2023-06-24T03:31:35;102517.22;;;17.99;69.85
79455;BME280;68900;52.134;5.420;2023-06-24T03:34:04;102517.97;;;18.09;68.61
79455;BME280;68900;52.134;5.420;2023-06-24T03:36:30;102526.56;;;18.14;69.27
79455;BME280;68900;52.134;5.420;2023-06-24T03:38:57;102523.94;;;18.04;68.66
79455;BME280;68900;52.134;5.420;2023-06-24T03:41:23;102522.59;;;18.08;68.88
79455;BME280;68900;52.134;5.420;2023-06-24T03:43:55;102524.31;;;18.09;68.60
79455;BME280;68900;52.134;5.420;2023-06-24T03:46:22;102524.00;;;18.13;68.38
79455;BME280;68900;52.134;5.420;2023-06-24T03:48:50;102519.06;;;18.16;68.93
79455;BME280;68900;52.134;5.420;2023-06-24T03:51:16;102511.66;;;18.08;69.28
79455;BME280;68900;52.134;5.420;2023-06-24T03:53:43;102515.03;;;18.02;68.54
79455;BME280;68900;52.134;5.420;2023-06-24T03:56:09;102521.38;;;18.03;69.00
79455;BME280;68900;52.134;5.420;2023-06-24T03:58:36;102514.19;;;18.02;69.25
79455;BME280;68900;52.134;5.420;2023-06-24T04:01:03;102515.81;;;17.95;69.45
79455;BME280;68900;52.134;5.420;2023-06-24T04:03:29;102514.28;;;17.92;69.84
79455;BME280;68900;52.134;5.420;2023-06-24T04:05:58;102517.88;;;17.93;69.97
79455;BME280;68900;52.134;5.420;2023-06-24T04:08:24;102520.41;;;17.94;69.89
79455;BME280;68900;52.134;5.420;2023-06-24T04:10:57;102522.22;;;17.86;70.18
79455;BME280;68900;52.134;5.420;2023-06-24T04:13:26;102531.28;;;17.86;69.61
79455;BME280;68900;52.134;5.420;2023-06-24T04:15:53;102531.47;;;17.85;70.88
79455;BME280;68900;52.134;5.420;2023-06-24T04:18:20;102529.22;;;17.80;71.55
79455;BME280;68900;52.134;5.420;2023-06-24T04:20:47;102545.94;;;17.85;70.73
79455;BME280;68900;52.134;5.420;2023-06-24T04:23:14;102536.28;;;17.91;71.78
79455;BME280;68900;52.134;5.420;2023-06-24T04:25:41;102531.47;;;17.85;71.41
79455;BME280;68900;52.134;5.420;2023-06-24T04:28:08;102536.94;;;17.85;71.78
79455;BME280;68900;52.134;5.420;2023-06-24T04:30:35;102529.75;;;17.84;71.78
79455;BME280;68900;52.134;5.420;2023-06-24T04:33:02;102538.94;;;17.83;71.53
79455;BME280;68900;52.134;5.420;2023-06-24T04:35:29;102534.34;;;17.83;72.77
79455;BME280;68900;52.134;5.420;2023-06-24T04:37:56;102535.50;;;17.81;73.05
79455;BME280;68900;52.134;5.420;2023-06-24T04:40:25;102527.69;;;17.86;73.30
79455;BME280;68900;52.134;5.420;2023-06-24T04:42:52;102522.63;;;17.91;73.39
79455;BME280;68900;52.134;5.420;2023-06-24T04:45:25;102524.19;;;17.93;73.43
79455;BME280;68900;52.134;5.420;2023-06-24T04:47:52;102527.59;;;17.95;73.17
79455;BME280;68900;52.134;5.420;2023-06-24T04:50:30;102530.19;;;17.97;72.90
79455;BME280;68900;52.134;5.420;2023-06-24T04:52:58;102529.00;;;17.99;73.46
79455;BME280;68900;52.134;5.420;2023-06-24T04:55:24;102533.31;;;18.02;73.48
79455;BME280;68900;52.134;5.420;2023-06-24T04:57:51;102530.97;;;18.07;73.74
79455;BME280;68900;52.134;5.420;2023-06-24T05:00:18;102536.34;;;18.17;73.63
79455;BME280;68900;52.134;5.420;2023-06-24T05:02:45;102530.78;;;18.26;72.48
79455;BME280;68900;52.134;5.420;2023-06-24T05:05:12;102532.69;;;18.34;71.86
79455;BME280;68900;52.134;5.420;2023-06-24T05:07:38;102546.22;;;18.35;72.23
79455;BME280;68900;52.134;5.420;2023-06-24T05:10:06;102548.75;;;18.37;72.97
79455;BME280;68900;52.134;5.420;2023-06-24T05:12:32;102547.59;;;18.39;71.97
79455;BME280;68900;52.134;5.420;2023-06-24T05:14:59;102551.72;;;18.43;71.29
79455;BME280;68900;52.134;5.420;2023-06-24T05:17:25;102548.66;;;18.46;70.99
79455;BME280;68900;52.134;5.420;2023-06-24T05:19:54;102547.78;;;18.46;70.82
79455;BME280;68900;52.134;5.420;2023-06-24T05:22:21;102549.19;;;18.50;70.52
79455;BME280;68900;52.134;5.420;2023-06-24T05:24:47;102546.84;;;18.55;70.32
79455;BME280;68900;52.134;5.420;2023-06-24T05:27:14;102554.78;;;18.66;70.05
79455;BME280;68900;52.134;5.420;2023-06-24T05:29:40;102552.97;;;18.75;69.76
79455;BME280;68900;52.134;5.420;2023-06-24T05:32:08;102553.69;;;18.85;69.91
79455;BME280;68900;52.134;5.420;2023-06-24T05:34:34;102542.94;;;18.91;69.60
79455;BME280;68900;52.134;5.420;2023-06-24T05:37:01;102538.22;;;19.02;69.24
79455;BME280;68900;52.134;5.420;2023-06-24T05:39:28;102543.38;;;19.13;68.89
79455;BME280;68900;52.134;5.420;2023-06-24T05:41:54;102542.19;;;19.15;67.95
79455;BME280;68900;52.134;5.420;2023-06-24T05:44:21;102549.97;;;19.28;67.52
79455;BME280;68900;52.134;5.420;2023-06-24T05:47:13;102548.41;;;19.33;66.60
79455;BME280;68900;52.134;5.420;2023-06-24T05:49:41;102556.97;;;19.38;67.60
79455;BME280;68900;52.134;5.420;2023-06-24T05:52:07;102557.06;;;19.47;66.72
79455;BME280;68900;52.134;5.420;2023-06-24T05:54:34;102553.31;;;19.56;67.71
79455;BME280;68900;52.134;5.420;2023-06-24T05:57:01;102548.00;;;19.62;66.97
79455;BME280;68900;52.134;5.420;2023-06-24T05:59:28;102547.84;;;19.64;66.54
79455;BME280;68900;52.134;5.420;2023-06-24T06:01:54;102552.63;;;19.70;66.38
79455;BME280;68900;52.134;5.420;2023-06-24T06:04:21;102554.53;;;19.77;65.80
79455;BME280;68900;52.134;5.420;2023-06-24T06:06:48;102555.56;;;19.84;65.98
79455;BME280;68900;52.134;5.420;2023-06-24T06:09:15;102561.88;;;19.93;66.06
79455;BME280;68900;52.134;5.420;2023-06-24T06:11:41;102550.09;;;20.01;65.82
79455;BME280;68900;52.134;5.420;2023-06-24T06:14:08;102556.94;;;20.13;65.75
79455;BME280;68900;52.134;5.420;2023-06-24T06:16:35;102559.34;;;20.24;64.56
79455;BME280;68900;52.134;5.420;2023-06-24T06:19:01;102545.81;;;20.31;64.52
79455;BME280;68900;52.134;5.420;2023-06-24T06:21:28;102550.44;;;20.38;64.25
79455;BME280;68900;52.134;5.420;2023-06-24T06:23:55;102553.16;;;20.46;64.51
79455;BME280;68900;52.134;5.420;2023-06-24T06:26:21;102559.31;;;20.56;63.77
79455;BME280;68900;52.134;5.420;2023-06-24T06:28:48;102553.97;;;20.63;63.56
79455;BME280;68900;52.134;5.420;2023-06-24T06:31:15;102566.63;;;20.72;63.29
79455;BME280;68900;52.134;5.420;2023-06-24T06:33:43;102561.47;;;20.77;62.53
79455;BME280;68900;52.134;5.420;2023-06-24T06:36:10;102557.19;;;20.83;62.17
79455;BME280;68900;52.134;5.420;2023-06-24T06:39:02;102555.31;;;20.83;62.59
79455;BME280;68900;52.134;5.420;2023-06-24T06:41:46;102560.59;;;20.93;62.47
79455;BME280;68900;52.134;5.420;2023-06-24T06:44:13;102548.06;;;20.98;62.83
79455;BME280;68900;52.134;5.420;2023-06-24T06:46:40;102559.16;;;21.05;62.92
79455;BME280;68900;52.134;5.420;2023-06-24T06:49:06;102563.06;;;21.19;62.34
79455;BME280;68900;52.134;5.420;2023-06-24T06:51:33;102562.38;;;21.25;61.09
79455;BME280;68900;52.134;5.420;2023-06-24T06:54:01;102558.91;;;21.31;61.87
79455;BME280;68900;52.134;5.420;2023-06-24T06:56:28;102565.03;;;21.41;61.99
79455;BME280;68900;52.134;5.420;2023-06-24T06:58:55;102557.94;;;21.46;61.64
79455;BME280;68900;52.134;5.420;2023-06-24T07:01:21;102559.81;;;21.54;60.92
79455;BME280;68900;52.134;5.420;2023-06-24T07:03:49;102558.41;;;21.58;60.80
79455;BME280;68900;52.134;5.420;2023-06-24T07:06:19;102551.81;;;21.67;60.82
79455;BME280;68900;52.134;5.420;2023-06-24T07:08:46;102556.94;;;21.70;60.23
79455;BME280;68900;52.134;5.420;2023-06-24T07:11:12;102553.94;;;21.80;59.48
79455;BME280;68900;52.134;5.420;2023-06-24T07:13:39;102555.66;;;21.81;60.13
79455;BME280;68900;52.134;5.420;2023-06-24T07:16:06;102552.38;;;21.85;59.68
79455;BME280;68900;52.134;5.420;2023-06-24T07:18:32;102559.16;;;21.97;59.48
79455;BME280;68900;52.134;5.420;2023-06-24T07:21:00;102558.44;;;22.03;58.49
79455;BME280;68900;52.134;5.420;2023-06-24T07:23:27;102557.50;;;22.11;58.16
79455;BME280;68900;52.134;5.420;2023-06-24T07:25:54;102563.50;;;22.15;57.62
79455;BME280;68900;52.134;5.420;2023-06-24T07:28:21;102563.06;;;22.26;57.21
79455;BME280;68900;52.134;5.420;2023-06-24T07:30:47;102558.84;;;22.38;57.16
79455;BME280;68900;52.134;5.420;2023-06-24T07:33:14;102559.13;;;22.58;56.65
79455;BME280;68900;52.134;5.420;2023-06-24T07:35:41;102554.38;;;22.66;56.65
79455;BME280;68900;52.134;5.420;2023-06-24T07:38:22;102556.44;;;22.87;56.74
79455;BME280;68900;52.134;5.420;2023-06-24T07:40:49;102557.19;;;22.96;55.73
79455;BME280;68900;52.134;5.420;2023-06-24T07:43:15;102550.25;;;23.00;56.02
79455;BME280;68900;52.134;5.420;2023-06-24T07:45:42;102552.59;;;23.17;53.72
79455;BME280;68900;52.134;5.420;2023-06-24T07:48:09;102552.41;;;23.19;54.20
79455;BME280;68900;52.134;5.420;2023-06-24T07:50:36;102553.91;;;23.21;54.51
79455;BME280;68900;52.134;5.420;2023-06-24T07:53:02;102550.75;;;23.39;54.74
79455;BME280;68900;52.134;5.420;2023-06-24T07:55:56;102546.06;;;23.54;54.03
79455;BME280;68900;52.134;5.420;2023-06-24T07:58:22;102542.94;;;23.57;54.28
79455;BME280;68900;52.134;5.420;2023-06-24T08:00:49;102541.97;;;23.65;53.42
79455;BME280;68900;52.134;5.420;2023-06-24T08:03:15;102544.97;;;23.70;52.49
79455;BME280;68900;52.134;5.420;2023-06-24T08:05:42;102547.00;;;23.83;51.05
79455;BME280;68900;52.134;5.420;2023-06-24T08:08:14;102541.91;;;23.80;51.41
79455;BME280;68900;52.134;5.420;2023-06-24T08:10:56;102537.09;;;23.88;51.99
79455;BME280;68900;52.134;5.420;2023-06-24T08:13:38;102540.56;;;23.97;52.16
79455;BME280;68900;52.134;5.420;2023-06-24T08:19:57;102544.84;;;24.20;51.01
79455;BME280;68900;52.134;5.420;2023-06-24T08:22:23;102534.94;;;24.26;49.79
79455;BME280;68900;52.134;5.420;2023-06-24T08:24:50;102537.97;;;24.38;49.66
79455;BME280;68900;52.134;5.420;2023-06-24T08:27:21;102539.06;;;24.37;49.49
79455;BME280;68900;52.134;5.420;2023-06-24T08:30:06;102541.41;;;24.40;50.47
79455;BME280;68900;52.134;5.420;2023-06-24T08:32:33;102535.31;;;24.51;49.87
79455;BME280;68900;52.134;5.420;2023-06-24T08:35:06;102534.84;;;24.75;49.75
79455;BME280;68900;52.134;5.420;2023-06-24T08:37:33;102535.78;;;24.89;48.88
79455;BME280;68900;52.134;5.420;2023-06-24T08:40:00;102540.75;;;25.00;49.25
79455;BME280;68900;52.134;5.420;2023-06-24T08:42:27;102533.81;;;25.11;48.70
79455;BME280;68900;52.134;5.420;2023-06-24T08:44:56;102544.06;;;25.23;47.98
79455;BME280;68900;52.134;5.420;2023-06-24T08:47:24;102536.00;;;25.35;47.66
79455;BME280;68900;52.134;5.420;2023-06-24T08:50:01;102536.25;;;25.46;47.92
79455;BME280;68900;52.134;5.420;2023-06-24T08:52:32;102537.75;;;25.49;47.85
79455;BME280;68900;52.134;5.420;2023-06-24T08:55:06;102528.19;;;25.51;47.81
79455;BME280;68900;52.134;5.420;2023-06-24T08:57:33;102533.28;;;25.41;46.94
79455;BME280;68900;52.134;5.420;2023-06-24T09:00:00;102527.94;;;25.33;46.97
79455;BME280;68900;52.134;5.420;2023-06-24T09:02:27;102528.31;;;25.30;48.44
79455;BME280;68900;52.134;5.420;2023-06-24T09:08:30;102531.44;;;25.55;48.71
79455;BME280;68900;52.134;5.420;2023-06-24T09:10:59;102537.63;;;25.70;47.79
79455;BME280;68900;52.134;5.420;2023-06-24T09:13:36;102531.03;;;25.71;46.89
79455;BME280;68900;52.134;5.420;2023-06-24T09:16:11;102525.50;;;25.78;47.06
79455;BME280;68900;52.134;5.420;2023-06-24T09:18:59;102526.16;;;25.80;47.01
79455;BME280;68900;52.134;5.420;2023-06-24T09:22:09;102526.75;;;25.56;48.57
79455;BME280;68900;52.134;5.420;2023-06-24T09:24:44;102525.94;;;25.81;48.42
79455;BME280;68900;52.134;5.420;2023-06-24T09:27:18;102520.00;;;25.91;46.58
79455;BME280;68900;52.134;5.420;2023-06-24T09:29:52;102527.88;;;25.87;48.33
79455;BME280;68900;52.134;5.420;2023-06-24T09:32:19;102511.69;;;25.98;46.73
79455;BME280;68900;52.134;5.420;2023-06-24T09:34:46;102515.31;;;26.11;47.48
79455;BME280;68900;52.134;5.420;2023-06-24T09:37:21;102515.94;;;26.20;46.88
79455;BME280;68900;52.134;5.420;2023-06-24T09:39:49;102515.97;;;26.40;45.09
79455;BME280;68900;52.134;5.420;2023-06-24T09:42:22;102507.22;;;26.49;45.84
79455;BME280;68900;52.134;5.420;2023-06-24T09:45:08;102510.81;;;26.50;45.84
79455;BME280;68900;52.134;5.420;2023-06-24T09:47:35;102511.22;;;26.60;45.30
79455;BME280;68900;52.134;5.420;2023-06-24T09:50:02;102516.13;;;26.71;44.62
79455;BME280;68900;52.134;5.420;2023-06-24T09:52:36;102502.22;;;26.77;43.48
79455;BME280;68900;52.134;5.420;2023-06-24T09:55:17;102500.31;;;26.78;44.36
79455;BME280;68900;52.134;5.420;2023-06-24T09:58:01;102497.91;;;27.01;43.88
79455;BME280;68900;52.134;5.420;2023-06-24T10:00:29;102497.44;;;27.11;44.52
79455;BME280;68900;52.134;5.420;2023-06-24T10:02:56;102492.97;;;27.10;43.06
79455;BME280;68900;52.134;5.420;2023-06-24T10:05:26;102496.69;;;27.35;44.73
79455;BME280;68900;52.134;5.420;2023-06-24T10:07:54;102499.13;;;27.18;44.39
79455;BME280;68900;52.134;5.420;2023-06-24T10:10:20;102495.91;;;27.28;45.83
79455;BME280;68900;52.134;5.420;2023-06-24T10:12:47;102497.34;;;27.37;43.94
79455;BME280;68900;52.134;5.420;2023-06-24T10:15:14;102494.50;;;27.44;43.83
79455;BME280;68900;52.134;5.420;2023-06-24T10:17:51;102490.22;;;27.54;43.24
79455;BME280;68900;52.134;5.420;2023-06-24T10:21:07;102491.56;;;27.70;42.60
79455;BME280;68900;52.134;5.420;2023-06-24T10:26:29;102492.81;;;27.49;41.72
79455;BME280;68900;52.134;5.420;2023-06-24T10:31:51;102480.56;;;27.57;42.46
79455;BME280;68900;52.134;5.420;2023-06-24T10:39:51;102478.66;;;28.14;43.50
79455;BME280;68900;52.134;5.420;2023-06-24T10:42:37;102476.75;;;28.14;41.47
79455;BME280;68900;52.134;5.420;2023-06-24T10:47:51;102463.97;;;28.31;40.67
79455;BME280;68900;52.134;5.420;2023-06-24T10:50:29;102467.91;;;28.42;39.83
79455;BME280;68900;52.134;5.420;2023-06-24T10:52:55;102469.63;;;28.43;39.32
79455;BME280;68900;52.134;5.420;2023-06-24T10:55:24;102469.28;;;28.33;39.81
79455;BME280;68900;52.134;5.420;2023-06-24T10:57:52;102466.75;;;28.49;38.63
79455;BME280;68900;52.134;5.420;2023-06-24T11:00:21;102463.09;;;28.74;39.15
79455;BME280;68900;52.134;5.420;2023-06-24T11:03:34;102466.56;;;28.87;39.89
79455;BME280;68900;52.134;5.420;2023-06-24T11:06:04;102465.38;;;28.95;40.05
79455;BME280;68900;52.134;5.420;2023-06-24T11:08:33;102464.06;;;28.97;40.34
79455;BME280;68900;52.134;5.420;2023-06-24T11:11:00;102458.97;;;28.76;39.42
79455;BME280;68900;52.134;5.420;2023-06-24T11:13:26;102455.09;;;28.59;40.05
79455;BME280;68900;52.134;5.420;2023-06-24T11:15:59;102456.16;;;28.40;42.12
79455;BME280;68900;52.134;5.420;2023-06-24T11:18:37;102460.81;;;28.64;41.56
79455;BME280;68900;52.134;5.420;2023-06-24T11:21:04;102458.69;;;28.84;41.27
79455;BME280;68900;52.134;5.420;2023-06-24T11:23:34;102461.47;;;28.84;41.66
79455;BME280;68900;52.134;5.420;2023-06-24T11:26:02;102464.16;;;28.73;41.89
79455;BME280;68900;52.134;5.420;2023-06-24T11:28:31;102459.53;;;28.67;42.18
79455;BME280;68900;52.134;5.420;2023-06-24T11:31:06;102452.81;;;28.56;43.17
79455;BME280;68900;52.134;5.420;2023-06-24T11:33:33;102452.47;;;28.46;42.63
79455;BME280;68900;52.134;5.420;2023-06-24T11:35:59;102447.56;;;28.48;41.44
79455;BME280;68900;52.134;5.420;2023-06-24T11:38:26;102446.63;;;28.72;40.37
79455;BME280;68900;52.134;5.420;2023-06-24T11:40:58;102446.94;;;28.82;41.30
79455;BME280;68900;52.134;5.420;2023-06-24T11:43:25;102441.00;;;28.79;40.91
79455;BME280;68900;52.134;5.420;2023-06-24T11:45:52;102440.88;;;28.67;41.65
79455;BME280;68900;52.134;5.420;2023-06-24T11:48:20;102436.19;;;28.68;40.98
79455;BME280;68900;52.134;5.420;2023-06-24T11:50:53;102434.72;;;28.65;42.22
79455;BME280;68900;52.134;5.420;2023-06-24T11:53:30;102437.50;;;28.65;42.30
79455;BME280;68900;52.134;5.420;2023-06-24T11:56:00;102445.69;;;28.60;40.82
79455;BME280;68900;52.134;5.420;2023-06-24T11:58:29;102441.53;;;28.51;41.60
79455;BME280;68900;52.134;5.420;2023-06-24T12:01:00;102440.91;;;28.49;42.08
79455;BME280;68900;52.134;5.420;2023-06-24T12:03:52;102442.97;;;28.35;43.05
79455;BME280;68900;52.134;5.420;2023-06-24T12:06:19;102437.88;;;28.07;43.85
79455;BME280;68900;52.134;5.420;2023-06-24T12:08:46;102432.06;;;27.91;44.90
79455;BME280;68900;52.134;5.420;2023-06-24T12:11:18;102430.06;;;27.98;44.33
79455;BME280;68900;52.134;5.420;2023-06-24T12:13:44;102435.31;;;27.88;44.84
79455;BME280;68900;52.134;5.420;2023-06-24T12:16:11;102429.03;;;27.74;45.39
79455;BME280;68900;52.134;5.420;2023-06-24T12:18:43;102428.56;;;27.77;45.43
79455;BME280;68900;52.134;5.420;2023-06-24T12:21:10;102428.00;;;27.68;45.98
79455;BME280;68900;52.134;5.420;2023-06-24T12:23:36;102423.91;;;27.71;45.20
79455;BME280;68900;52.134;5.420;2023-06-24T12:26:18;102433.16;;;27.65;45.66
79455;BME280;68900;52.134;5.420;2023-06-24T12:28:45;102421.09;;;27.78;45.52
79455;BME280;68900;52.134;5.420;2023-06-24T12:31:27;102419.78;;;27.80;45.56
79455;BME280;68900;52.134;5.420;2023-06-24T12:33:54;102423.97;;;27.89;45.48
79455;BME280;68900;52.134;5.420;2023-06-24T12:36:21;102415.66;;;27.89;45.03
79455;BME280;68900;52.134;5.420;2023-06-24T12:39:12;102421.19;;;27.89;44.77
79455;BME280;68900;52.134;5.420;2023-06-24T12:41:47;102416.88;;;27.93;44.76
79455;BME280;68900;52.134;5.420;2023-06-24T12:44:13;102415.44;;;27.91;45.45
79455;BME280;68900;52.134;5.420;2023-06-24T12:46:40;102411.06;;;28.01;44.39
79455;BME280;68900;52.134;5.420;2023-06-24T12:49:06;102405.34;;;27.96;43.76
79455;BME280;68900;52.134;5.420;2023-06-24T12:51:33;102411.91;;;28.02;44.57
79455;BME280;68900;52.134;5.420;2023-06-24T12:54:00;102407.13;;;28.09;43.65
79455;BME280;68900;52.134;5.420;2023-06-24T12:56:26;102402.09;;;27.99;45.67
79455;BME280;68900;52.134;5.420;2023-06-24T12:58:55;102399.00;;;27.89;44.18
79455;BME280;68900;52.134;5.420;2023-06-24T13:01:22;102399.84;;;27.90;45.16
79455;BME280;68900;52.134;5.420;2023-06-24T13:03:48;102402.63;;;27.90;43.57
79455;BME280;68900;52.134;5.420;2023-06-24T13:06:15;102406.25;;;27.90;44.55
79455;BME280;68900;52.134;5.420;2023-06-24T13:08:42;102404.84;;;27.81;43.44
79455;BME280;68900;52.134;5.420;2023-06-24T13:11:09;102400.34;;;27.80;43.92
79455;BME280;68900;52.134;5.420;2023-06-24T13:13:36;102402.03;;;27.88;42.85
79455;BME280;68900;52.134;5.420;2023-06-24T13:16:03;102402.97;;;27.75;44.01
79455;BME280;68900;52.134;5.420;2023-06-24T13:18:29;102399.13;;;27.76;44.20
79455;BME280;68900;52.134;5.420;2023-06-24T13:20:56;102396.63;;;27.68;43.31
79455;BME280;68900;52.134;5.420;2023-06-24T13:23:40;102395.09;;;27.72;44.89
79455;BME280;68900;52.134;5.420;2023-06-24T13:26:08;102389.09;;;27.75;44.38
79455;BME280;68900;52.134;5.420;2023-06-24T13:28:34;102393.09;;;27.79;44.06
79455;BME280;68900;52.134;5.420;2023-06-24T13:31:01;102394.75;;;27.87;44.97
79455;BME280;68900;52.134;5.420;2023-06-24T13:33:28;102389.69;;;27.84;44.00
79455;BME280;68900;52.134;5.420;2023-06-24T13:35:58;102389.97;;;27.94;44.71